Time;durP1;ratioP1;P1;durP2;ratioP2;P2;SDS_P1;SDS_P2;PMS_P1;PMS_P2;Temp;Humidity;BMP_temperature;BMP_pressure;BME280_temperature;BME280_humidity;BME280_pressure;Samples;Min_cycle;Max_cycle;Signal;HPM_P1;HPM_P2
2022/10/14 00:01:25;;;;;;;40.85;20.38;;;11.80;99.90;;;10.76;100.00;101153.97;5011647;28;20042;-82
2022/10/14 00:03:53;;;;;;;34.08;19.33;;;11.90;99.90;;;10.78;100.00;101160.91;5003489;28;20030;-82
2022/10/14 00:06:34;;;;;;;35.67;20.38;;;11.90;99.90;;;10.82;100.00;101154.59;5023442;23;20038;-83
2022/10/14 00:09:13;;;;;;;35.25;18.63;;;11.90;99.90;;;10.84;100.00;101150.13;5009673;28;20057;-82
2022/10/14 00:11:41;;;;;;;40.40;19.55;;;12.00;99.90;;;10.88;100.00;101146.44;5004671;28;20074;-83
2022/10/14 00:14:19;;;;;;;36.15;19.02;;;12.00;99.90;;;10.91;100.00;101150.72;5008789;28;20025;-81
2022/10/14 00:16:54;;;;;;;37.33;18.48;;;12.00;99.90;;;10.95;100.00;101146.16;5007024;28;20038;-83
2022/10/14 00:19:20;;;;;;;31.73;18.60;;;12.10;99.90;;;10.97;100.00;101150.47;5021661;28;20061;-82
2022/10/14 00:21:46;;;;;;;29.40;18.92;;;12.10;99.90;;;11.00;100.00;101152.97;4985591;28;20058;-81
2022/10/14 00:24:15;;;;;;;30.60;18.02;;;12.10;99.90;;;11.03;100.00;101146.69;5003262;28;20041;-83
2022/10/14 00:26:49;;;;;;;36.70;17.45;;;12.10;99.90;;;11.01;100.00;101146.75;4980865;28;20041;-82
2022/10/14 00:29:17;;;;;;;32.05;17.35;;;12.10;99.90;;;11.03;100.00;101146.69;4987696;28;20573;-83
2022/10/14 00:31:53;;;;;;;38.90;17.80;;;12.10;99.90;;;11.03;100.00;101138.81;5002170;28;20040;-82
2022/10/14 00:34:19;;;;;;;31.60;17.30;;;12.10;99.90;;;11.02;100.00;101139.72;5003057;28;20033;-82
2022/10/14 00:36:44;;;;;;;28.70;16.80;;;12.10;99.90;;;10.99;100.00;101137.22;4986342;28;20053;-82
2022/10/14 00:39:11;;;;;;;38.92;16.33;;;12.10;99.90;;;11.00;100.00;101145.06;4989603;28;20033;-83
2022/10/14 00:41:46;;;;;;;33.38;16.35;;;12.10;99.90;;;11.01;100.00;101138.00;5003752;28;20026;-81
2022/10/14 00:44:14;;;;;;;29.75;17.17;;;12.10;99.90;;;10.95;100.00;101135.63;5004028;28;20040;-83
2022/10/14 00:46:49;;;;;;;34.40;17.13;;;12.10;99.90;;;10.94;100.00;101136.56;5015856;23;20049;-82
2022/10/14 00:49:28;;;;;;;27.92;16.33;;;12.10;99.90;;;10.93;100.00;101132.19;5007815;28;20041;-82
2022/10/14 00:52:05;;;;;;;30.60;16.42;;;12.00;99.90;;;10.92;100.00;101138.41;5024292;28;20034;-82
2022/10/14 00:54:37;;;;;;;26.25;16.27;;;12.00;99.90;;;10.88;100.00;101140.28;5030589;28;20121;-82
2022/10/14 00:57:06;;;;;;;37.47;17.35;;;12.00;99.90;;;10.83;100.00;101129.94;5004702;28;20053;-83
2022/10/14 00:59:34;;;;;;;37.72;17.95;;;11.90;99.90;;;10.76;100.00;101125.84;5006081;28;20026;-83
2022/10/14 01:02:00;;;;;;;30.88;16.48;;;11.90;99.90;;;10.57;100.00;101124.88;5020747;28;20109;-83
2022/10/14 01:04:26;;;;;;;35.08;18.42;;;11.80;99.90;;;10.45;100.00;101124.47;5023879;28;20106;-82
2022/10/14 01:07:07;;;;;;;36.55;18.33;;;11.70;99.90;;;10.46;100.00;101128.81;5049434;23;20057;-83
2022/10/14 01:09:54;;;;;;;31.30;18.55;;;11.70;99.90;;;10.44;100.00;101128.00;5024590;28;20164;-83
2022/10/14 01:12:59;;;;;;;36.53;18.48;;;11.60;99.90;;;10.43;100.00;101117.53;5025393;28;20396;-82
2022/10/14 01:15:40;;;;;;;33.65;17.58;;;11.60;99.90;;;10.36;100.00;101116.91;5025500;28;20037;-82
2022/10/14 01:18:53;;;;;;;41.25;18.02;;;11.60;99.90;;;10.39;100.00;101111.53;5028871;28;20025;-82
2022/10/14 01:21:25;;;;;;;36.80;19.60;;;11.50;99.90;;;10.38;100.00;101116.88;5027561;28;20037;-83
2022/10/14 01:24:27;;;;;;;38.55;19.55;;;11.50;99.90;;;10.37;100.00;101118.66;5029352;28;20036;-83
2022/10/14 01:27:19;;;;;;;34.30;18.75;;;11.60;99.90;;;10.40;100.00;101115.88;5014706;23;20092;-84
2022/10/14 01:30:12;;;;;;;37.72;18.95;;;11.60;99.90;;;10.38;100.00;101115.06;5018648;28;20034;-82
2022/10/14 01:33:11;;;;;;;38.70;18.30;;;11.50;99.90;;;10.33;100.00;101117.06;5009465;28;20417;-82
2022/10/14 01:35:46;;;;;;;38.58;17.90;;;11.50;99.90;;;10.32;100.00;101107.41;5018032;28;20038;-82
2022/10/14 01:38:37;;;;;;;37.60;18.20;;;11.50;99.90;;;10.30;100.00;101105.78;4992046;28;20117;-83
2022/10/14 01:41:08;;;;;;;37.22;17.38;;;11.50;99.90;;;10.34;100.00;101113.47;4994353;28;21300;-82
2022/10/14 01:43:36;;;;;;;35.83;18.90;;;11.50;99.90;;;10.35;100.00;101115.22;4996769;28;20038;-83
2022/10/14 01:46:05;;;;;;;33.53;18.10;;;11.50;99.90;;;10.37;100.00;101117.78;4998755;28;20022;-83
2022/10/14 01:48:38;;;;;;;35.78;18.52;;;11.50;99.90;;;10.38;100.00;101114.22;4993599;28;20034;-83
2022/10/14 01:51:35;;;;;;;32.85;17.45;;;11.50;99.90;;;10.40;100.00;101113.25;4979420;28;20033;-83
2022/10/14 01:54:15;;;;;;;;;;;11.50;99.90;;;10.33;100.00;101113.56;4996816;28;20120;-83
2022/10/14 01:56:44;;;;;;;30.25;17.73;;;11.50;99.90;;;10.33;100.00;101100.41;4998829;28;19964;-82
2022/10/14 01:59:16;;;;;;;36.10;19.02;;;11.50;99.90;;;10.40;100.00;101105.34;4996832;28;20026;-83
2022/10/14 02:01:42;;;;;;;32.95;18.83;;;11.60;99.90;;;10.42;100.00;101111.41;4971022;28;20474;-84
2022/10/14 02:04:22;;;;;;;34.58;18.05;;;11.60;99.90;;;10.43;100.00;101096.47;5013142;28;20077;-82
2022/10/14 02:07:16;;;;;;;32.00;17.30;;;11.60;99.90;;;10.51;100.00;101104.06;4997445;28;20120;-82
2022/10/14 02:10:12;;;;;;;35.72;17.52;;;11.70;99.90;;;10.55;100.00;101100.41;5011148;28;20026;-84
2022/10/14 02:13:00;;;;;;;33.90;17.17;;;11.70;99.90;;;10.57;100.00;101103.81;5012820;28;20037;-83
2022/10/14 02:16:09;;;;;;;36.17;18.40;;;11.70;99.90;;;10.56;100.00;101102.09;5012935;28;20481;-82
2022/10/14 02:18:59;;;;;;;31.80;17.08;;;11.70;99.90;;;10.53;100.00;101099.59;4994875;28;20026;-82
2022/10/14 02:21:50;;;;;;;37.83;17.52;;;11.70;99.90;;;10.51;100.00;101097.03;5017611;28;20022;-82
2022/10/14 02:27:10;;;;;;;34.53;17.70;;;11.60;99.90;;;10.54;100.00;101111.84;5031616;23;20068;-82
2022/10/14 02:29:45;;;;;;;24.95;15.88;;;11.70;99.90;;;10.56;100.00;101107.38;5024124;28;20049;-82
2022/10/14 02:32:24;;;;;;;30.45;17.50;;;11.70;99.90;;;10.59;100.00;101102.00;5022858;28;20148;-83
2022/10/14 02:35:02;;;;;;;32.35;16.75;;;11.70;99.90;;;10.57;100.00;101101.19;5023557;28;20033;-84
2022/10/14 02:37:32;;;;;;;31.88;16.73;;;11.70;99.90;;;10.56;100.00;101100.34;5024396;28;20104;-84
2022/10/14 02:40:14;;;;;;;32.15;15.43;;;11.70;99.90;;;10.59;100.00;101099.34;5028989;28;20393;-83
2022/10/14 02:42:46;;;;;;;31.70;16.05;;;10.80;99.90;;;10.60;100.00;101101.91;5018624;28;20517;-83
2022/10/14 02:45:13;;;;;;;35.75;16.92;;;11.70;99.90;;;10.60;100.00;101096.63;5052227;23;20069;-83
2022/10/14 02:47:39;;;;;;;34.42;16.63;;;11.70;99.90;;;10.61;100.00;101094.88;4995842;28;20244;-84
2022/10/14 02:50:06;;;;;;;31.50;16.13;;;11.70;99.90;;;10.53;100.00;101092.56;4986561;28;20094;-83
2022/10/14 02:52:37;;;;;;;32.15;16.10;;;11.70;99.90;;;10.55;100.00;101090.72;4982986;28;20026;-82
2022/10/14 02:55:03;;;;;;;29.95;16.92;;;11.70;99.90;;;10.48;100.00;101083.16;4976951;28;20041;-83
2022/10/14 02:57:29;;;;;;;30.75;15.75;;;11.70;99.90;;;10.49;100.00;101084.84;5031613;23;20120;-76
2022/10/14 02:59:54;;;;;;;35.15;16.63;;;11.70;99.90;;;10.47;100.00;101079.63;5045185;28;20028;-77
2022/10/14 03:02:20;;;;;;;27.88;16.52;;;11.70;99.90;;;10.49;100.00;101083.06;5047718;28;20033;-77
2022/10/14 03:04:46;;;;;;;31.17;16.20;;;11.70;99.90;;;10.45;100.00;101078.84;5047725;28;20029;-77
2022/10/14 03:07:12;;;;;;;29.08;17.13;;;11.60;99.90;;;10.45;100.00;101079.72;5043993;28;20072;-77
2022/10/14 03:09:42;;;;;;;29.33;16.15;;;11.60;99.90;;;10.45;100.00;101070.94;5040609;28;20061;-77
2022/10/14 03:12:08;;;;;;;32.80;17.10;;;11.60;99.90;;;10.48;100.00;101073.47;5025465;28;20061;-77
2022/10/14 03:14:33;;;;;;;28.55;15.98;;;11.60;99.90;;;10.50;100.00;101070.78;5040472;28;20522;-77
2022/10/14 03:16:59;;;;;;;36.63;16.35;;;11.60;99.90;;;10.46;100.00;101076.16;5041194;28;20025;-77
2022/10/14 03:19:25;;;;;;;30.73;16.83;;;11.60;99.90;;;10.47;100.00;101077.00;5037105;28;20040;-76
2022/10/14 03:21:51;;;;;;;28.58;16.48;;;11.60;99.90;;;10.40;100.00;101075.53;5040918;28;20021;-76
2022/10/14 03:24:24;;;;;;;26.17;16.20;;;11.60;99.90;;;10.37;100.00;101071.25;5042411;28;20497;-77
2022/10/14 03:26:49;;;;;;;33.08;16.20;;;11.60;99.90;;;10.41;100.00;101071.97;5026725;28;20029;-77
2022/10/14 03:29:15;;;;;;;31.20;15.88;;;11.60;99.90;;;10.44;100.00;101075.34;5038310;28;20555;-77
2022/10/14 03:31:41;;;;;;;29.25;16.70;;;11.60;99.90;;;10.46;100.00;101075.28;5038783;28;20090;-77
2022/10/14 03:34:07;;;;;;;32.28;16.45;;;11.60;99.90;;;10.45;100.00;101069.19;5042164;28;20112;-77
2022/10/14 03:36:42;;;;;;;29.27;15.68;;;11.60;99.90;;;10.47;100.00;101071.72;5026432;28;20065;-77
2022/10/14 03:39:10;;;;;;;28.00;16.00;;;11.60;99.90;;;10.48;100.00;101078.72;5041333;28;20056;-77
2022/10/14 03:41:40;;;;;;;31.75;16.88;;;11.60;99.90;;;10.54;100.00;101075.84;5028865;28;20505;-77
2022/10/14 03:44:06;;;;;;;27.63;16.13;;;11.70;99.90;;;10.56;100.00;101079.28;5030164;28;20428;-77
2022/10/14 03:46:32;;;;;;;33.28;15.13;;;11.70;99.90;;;10.58;100.00;101079.19;5025162;28;20024;-77
2022/10/14 03:48:58;;;;;;;29.15;16.05;;;11.70;99.90;;;10.56;100.00;101079.28;5042571;28;20025;-77
2022/10/14 03:51:23;;;;;;;32.40;16.25;;;11.70;99.90;;;10.56;100.00;101076.66;5042719;28;20486;-77
2022/10/14 03:53:49;;;;;;;31.63;16.70;;;11.70;99.90;;;10.54;100.00;101077.59;5036782;28;20029;-77
2022/10/14 03:56:15;;;;;;;32.63;16.90;;;11.70;99.90;;;10.54;100.00;101077.59;5040006;28;20048;-77
2022/10/14 03:58:43;;;;;;;26.45;16.08;;;11.70;99.90;;;10.54;100.00;101074.97;5040790;28;20428;-77
2022/10/14 04:01:09;;;;;;;40.10;16.83;;;11.70;99.90;;;10.54;100.00;101073.22;5042363;28;20489;-77
2022/10/14 04:03:35;;;;;;;35.35;16.35;;;11.70;99.90;;;10.51;100.00;101072.47;5038631;28;20048;-77
2022/10/14 04:06:00;;;;;;;27.75;15.75;;;11.70;99.90;;;10.53;100.00;101070.63;5020121;28;20045;-77
2022/10/14 04:08:26;;;;;;;31.95;16.25;;;11.70;99.90;;;10.56;100.00;101067.88;5038485;28;20033;-77
2022/10/14 04:10:54;;;;;;;31.83;16.30;;;11.70;99.90;;;10.59;100.00;101070.38;5039745;28;20418;-77
2022/10/14 04:13:29;;;;;;;30.15;16.77;;;11.70;99.90;;;10.61;100.00;101068.56;5007139;28;20029;-77
2022/10/14 04:15:55;;;;;;;30.92;15.15;;;11.70;99.90;;;10.60;100.00;101072.09;5038787;28;20034;-77
2022/10/14 04:18:20;;;;;;;34.75;16.85;;;11.70;99.90;;;10.60;100.00;101066.81;5038010;28;20362;-77
2022/10/14 04:20:46;;;;;;;25.42;16.13;;;11.70;99.90;;;10.60;100.00;101064.19;5036857;28;20116;-77
2022/10/14 04:23:15;;;;;;;28.80;15.90;;;11.70;99.90;;;10.59;100.00;101063.34;5038636;28;20029;-77
2022/10/14 04:25:40;;;;;;;32.80;16.23;;;11.70;99.90;;;10.61;100.00;101064.13;5039650;28;20110;-77
2022/10/14 04:28:06;;;;;;;35.20;16.65;;;11.70;99.90;;;10.60;100.00;101057.13;5023013;28;20123;-77
2022/10/14 04:30:32;;;;;;;30.98;15.85;;;11.70;99.90;;;10.60;100.00;101056.28;5021907;28;20040;-77
2022/10/14 04:32:58;;;;;;;26.40;16.33;;;11.70;99.90;;;10.57;100.00;101053.78;5039348;28;20120;-77
2022/10/14 04:35:24;;;;;;;36.53;17.40;;;11.70;99.90;;;10.49;100.00;101051.47;5044443;28;20501;-77
2022/10/14 04:37:50;;;;;;;35.85;18.05;;;11.70;99.90;;;10.52;100.00;101048.72;5018409;28;20025;-77
2022/10/14 04:40:23;;;;;;;30.90;17.17;;;11.70;99.90;;;10.50;100.00;101058.47;5042357;28;20480;-77
2022/10/14 04:42:48;;;;;;;26.42;17.20;;;11.60;99.90;;;10.50;100.00;101054.97;5042271;28;20115;-77
2022/10/14 04:45:14;;;;;;;29.90;16.63;;;11.70;99.90;;;10.50;100.00;101053.19;5042313;28;20113;-77
2022/10/14 04:47:40;;;;;;;30.33;17.55;;;11.60;99.90;;;10.45;100.00;101050.75;5045928;28;20501;-78
2022/10/14 04:50:07;;;;;;;35.05;16.70;;;11.60;99.90;;;10.48;100.00;101051.56;5013529;28;20033;-77
2022/10/14 04:52:32;;;;;;;35.60;17.55;;;11.60;99.90;;;10.48;100.00;101054.19;5041718;28;20024;-77
2022/10/14 04:55:02;;;;;;;40.40;17.80;;;11.60;99.90;;;10.39;100.00;101044.88;5024247;28;20086;-78
2022/10/14 04:57:28;;;;;;;29.92;17.23;;;11.60;99.90;;;10.43;100.00;101047.31;5044824;28;20033;-76
2022/10/14 04:59:54;;;;;;;32.63;17.20;;;11.60;99.90;;;10.42;100.00;101048.22;5047184;28;20028;-76
2022/10/14 05:02:20;;;;;;;36.90;18.10;;;11.60;99.90;;;10.33;100.00;101043.34;5014947;28;20124;-77
2022/10/14 05:04:45;;;;;;;33.28;18.13;;;11.50;99.90;;;10.35;100.00;101049.41;5042803;28;20078;-77
2022/10/14 05:07:19;;;;;;;36.63;18.70;;;11.50;99.90;;;10.30;100.00;101043.44;5043629;28;20560;-77
2022/10/14 05:09:44;;;;;;;33.67;18.85;;;11.50;99.90;;;10.33;100.00;101047.75;5041235;28;20112;-77
2022/10/14 05:12:10;;;;;;;31.48;18.88;;;11.50;99.90;;;10.32;100.00;101046.88;5044671;28;20036;-78
2022/10/14 05:14:36;;;;;;;33.97;17.92;;;11.50;99.90;;;10.31;100.00;101046.97;5017483;28;20126;-77
2022/10/14 05:17:02;;;;;;;39.38;18.17;;;11.50;99.90;;;10.33;100.00;101047.75;5042016;28;20034;-77
2022/10/14 05:19:28;;;;;;;29.50;17.80;;;11.50;99.90;;;10.34;100.00;101055.56;5043605;28;20083;-76
2022/10/14 05:22:01;;;;;;;42.47;18.65;;;11.50;99.90;;;10.36;100.00;101055.53;5026464;28;20112;-77
2022/10/14 05:24:27;;;;;;;32.55;17.98;;;11.50;99.90;;;10.39;100.00;101055.41;5044440;28;20030;-77
2022/10/14 05:26:52;;;;;;;34.03;18.05;;;11.50;99.90;;;10.42;100.00;101056.13;5010088;28;20132;-77
2022/10/14 05:29:18;;;;;;;41.67;18.63;;;11.60;99.90;;;10.43;100.00;101057.84;5042354;28;20105;-76
2022/10/14 05:31:53;;;;;;;35.63;17.42;;;11.60;99.90;;;10.48;100.00;101059.44;5039317;28;20104;-77
2022/10/14 05:34:18;;;;;;;30.67;17.15;;;11.60;99.90;;;10.46;100.00;101068.25;5043702;28;20037;-77
2022/10/14 05:36:44;;;;;;;32.85;17.50;;;11.60;99.90;;;10.49;100.00;101066.41;5042458;28;20084;-77
2022/10/14 05:39:10;;;;;;;34.33;17.33;;;11.60;99.90;;;10.49;100.00;101063.78;5010762;28;20030;-76
2022/10/14 05:41:41;;;;;;;36.78;18.23;;;11.60;99.90;;;10.50;100.00;101063.72;5040021;28;20100;-77
2022/10/14 05:44:12;;;;;;;38.88;17.52;;;11.60;99.90;;;10.50;100.00;101060.25;5026141;28;20033;-77
2022/10/14 05:46:37;;;;;;;25.88;16.50;;;11.60;99.90;;;10.51;100.00;101060.16;5042307;28;20115;-77
2022/10/14 05:49:10;;;;;;;35.63;18.35;;;11.60;99.90;;;10.51;100.00;101054.91;5043571;28;20513;-77
2022/10/14 05:51:37;;;;;;;34.42;19.50;;;11.60;99.90;;;10.50;100.00;101050.56;5042543;28;20027;-77
2022/10/14 05:54:03;;;;;;;38.60;23.60;;;11.60;99.90;;;10.52;100.00;101059.25;5038079;28;20655;-78
2022/10/14 05:56:29;;;;;;;43.20;23.05;;;11.60;99.90;;;10.53;100.00;101054.84;5041013;28;20041;-77
2022/10/14 05:58:55;;;;;;;49.75;23.85;;;11.60;99.90;;;10.54;100.00;101061.81;5044780;28;20128;-76
2022/10/14 06:01:26;;;;;;;46.58;24.98;;;11.70;99.90;;;10.57;100.00;101059.06;5041654;28;20116;-77
2022/10/14 06:03:52;;;;;;;50.22;25.98;;;11.70;99.90;;;10.61;100.00;101064.13;5022998;28;20557;-77
2022/10/14 06:06:18;;;;;;;47.08;25.83;;;11.70;99.90;;;10.65;100.00;101064.88;5038127;28;20108;-77
2022/10/14 06:08:45;;;;;;;40.42;22.20;;;11.70;99.90;;;10.67;100.00;101068.31;5027065;28;20055;-77
2022/10/14 06:11:11;;;;;;;47.88;21.27;;;11.80;99.90;;;10.72;100.00;101063.69;5043135;28;20025;-77
2022/10/14 06:13:37;;;;;;;31.75;19.67;;;11.80;99.90;;;10.76;100.00;101062.66;5032221;28;20120;-77
2022/10/14 06:16:08;;;;;;;35.00;18.00;;;11.80;99.90;;;10.81;100.00;101068.56;5040781;28;20032;-78
2022/10/14 06:18:36;;;;;;;39.72;18.30;;;11.90;99.90;;;10.83;100.00;101072.00;5046843;28;20025;-77
2022/10/14 06:21:02;;;;;;;43.55;17.73;;;11.90;99.90;;;10.90;100.00;101066.47;5024164;28;20444;-77
2022/10/14 06:23:33;;;;;;;29.40;18.30;;;12.00;99.90;;;10.92;100.00;101057.56;5048650;28;20239;-77
2022/10/14 06:26:08;;;;;;;27.75;17.90;;;12.00;99.90;;;10.96;100.00;101061.78;5044349;28;20033;-77
2022/10/14 06:28:37;;;;;;;34.17;18.00;;;12.00;99.90;;;11.00;100.00;101071.28;5043831;28;20064;-78
2022/10/14 06:31:03;;;;;;;33.78;17.83;;;12.10;99.90;;;11.04;100.00;101069.38;5046836;28;20045;-77
2022/10/14 06:33:30;;;;;;;33.80;17.88;;;12.10;99.90;;;11.06;100.00;101067.53;5041312;28;20048;-78
2022/10/14 06:35:56;;;;;;;35.22;18.55;;;12.10;99.90;;;11.08;100.00;101069.19;5040714;28;20064;-77
2022/10/14 06:38:22;;;;;;;35.00;17.60;;;12.20;99.90;;;11.11;100.00;101069.97;5048577;28;20485;-77
2022/10/14 06:40:52;;;;;;;36.80;17.52;;;12.20;99.90;;;11.16;100.00;101063.56;5046989;28;20078;-77
2022/10/14 06:43:19;;;;;;;34.42;17.77;;;12.20;99.90;;;11.22;100.00;101073.84;5041548;28;20029;-77
2022/10/14 06:45:45;;;;;;;28.88;17.20;;;12.30;99.90;;;11.27;100.00;101066.59;5040474;28;20021;-77
2022/10/14 06:48:11;;;;;;;38.05;18.30;;;12.30;99.90;;;11.37;100.00;101074.94;5038980;28;20040;-77
2022/10/14 06:50:37;;;;;;;32.75;18.20;;;12.40;99.90;;;11.46;100.00;101078.94;5042477;28;20094;-77
2022/10/14 06:53:03;;;;;;;37.10;17.35;;;12.50;99.90;;;11.59;100.00;101076.63;5038244;28;20035;-77
2022/10/14 06:55:38;;;;;;;30.33;17.63;;;12.60;99.90;;;11.72;100.00;101084.84;5043691;28;20033;-77
2022/10/14 06:58:04;;;;;;;27.25;17.05;;;12.70;99.90;;;11.84;100.00;101073.72;5009245;28;20097;-79
2022/10/14 07:00:30;;;;;;;35.65;16.88;;;12.80;99.90;;;12.00;100.00;101077.38;5041815;28;20318;-77
2022/10/14 07:03:00;;;;;;;38.08;17.92;;;12.90;99.90;;;12.21;100.00;101080.78;5026387;28;20551;-77
2022/10/14 07:05:26;;;;;;;30.23;17.85;;;13.10;99.90;;;12.63;100.00;101070.84;5042166;28;20108;-77
2022/10/14 07:07:52;;;;;;;32.53;16.38;;;13.40;99.90;;;13.54;100.00;101075.00;5041216;28;20457;-77
2022/10/14 07:10:18;;;;;;;30.35;15.80;;;13.80;99.90;;;13.92;98.69;101072.06;5041650;28;20049;-77
2022/10/14 07:12:43;;;;;;;27.63;15.20;;;14.10;99.90;;;13.91;96.90;101087.13;5021211;28;20450;-77
2022/10/14 07:15:09;;;;;;;26.45;15.50;;;14.40;99.90;;;14.86;94.14;101086.19;5026213;28;20025;-77
2022/10/14 07:17:44;;;;;;;24.80;14.30;;;15.00;99.90;;;16.15;86.52;101090.69;5043736;28;20114;-77
2022/10/14 07:20:11;;;;;;;22.90;14.30;;;15.90;99.90;;;17.74;79.86;101105.72;5042167;28;20025;-77
2022/10/14 07:22:37;;;;;;;33.50;13.52;;;16.70;99.90;;;16.95;79.55;101094.34;5040734;28;21356;-77
2022/10/14 07:25:04;;;;;;;22.13;13.82;;;17.00;99.90;;;16.45;80.49;101085.19;5039115;28;20120;-77
2022/10/14 07:27:33;;;;;;;28.48;14.00;;;17.00;99.90;;;15.99;81.22;101081.06;5022710;28;20100;-77
2022/10/14 07:30:00;;;;;;;25.30;13.43;;;16.70;99.90;;;15.59;82.99;101087.97;5027956;28;20037;-77
2022/10/14 07:32:26;;;;;;;28.17;13.98;;;16.50;99.90;;;15.27;83.95;101088.19;5023638;28;20028;-77
2022/10/14 07:34:52;;;;;;;24.92;13.75;;;16.20;99.90;;;15.06;85.37;101087.66;5037233;28;20033;-77
2022/10/14 07:37:18;;;;;;;24.83;14.68;;;16.00;99.90;;;14.89;86.35;101091.31;5040074;28;20033;-77
2022/10/14 07:39:51;;;;;;;28.13;15.40;;;15.80;99.90;;;14.83;87.36;101093.47;5011615;28;20024;-77
2022/10/14 07:42:17;;;;;;;30.25;14.43;;;15.80;99.90;;;15.08;86.84;101092.88;5042001;28;20021;-77
2022/10/14 07:44:44;;;;;;;24.85;14.88;;;15.90;99.90;;;15.98;84.33;101103.28;5041861;28;20039;-77
2022/10/14 07:47:10;;;;;;;26.92;13.90;;;16.20;99.90;;;15.81;82.70;101095.53;5039923;28;20036;-77
2022/10/14 07:49:43;;;;;;;26.65;14.05;;;16.40;99.90;;;15.85;82.96;101097.00;5023726;28;20021;-77
2022/10/14 07:52:09;;;;;;;25.50;15.05;;;16.50;99.90;;;15.82;82.95;101097.22;5008843;28;20036;-77
2022/10/14 07:54:35;;;;;;;21.90;14.27;;;16.50;99.90;;;15.84;82.89;101094.47;5038288;28;20047;-77
2022/10/14 07:57:01;;;;;;;33.78;15.82;;;16.60;99.90;;;16.30;81.31;101097.69;5041927;28;20040;-77
2022/10/14 07:59:26;;;;;;;28.17;15.10;;;16.90;99.90;;;16.66;80.02;101092.72;5037418;28;20112;-77
2022/10/14 08:02:00;;;;;;;28.63;14.13;;;17.30;99.90;;;17.66;76.64;101100.09;5037524;28;20031;-77
2022/10/14 08:04:26;;;;;;;20.08;13.35;;;18.20;99.90;;;18.67;73.09;101107.91;5011291;28;20021;-77
2022/10/14 08:06:52;;;;;;;26.65;14.35;;;19.20;99.90;;;20.00;69.00;101101.25;5043509;28;20619;-77
2022/10/14 08:09:18;;;;;;;29.13;13.98;;;20.30;99.90;;;21.08;66.53;101107.50;5037530;28;20021;-77
2022/10/14 08:11:45;;;;;;;27.50;14.10;;;21.20;99.90;;;21.13;64.76;101100.91;5037838;28;20033;-77
2022/10/14 08:14:13;;;;;;;24.75;14.90;;;21.60;99.90;;;21.20;64.61;101104.75;5041668;28;20441;-78
2022/10/14 08:16:39;;;;;;;23.70;13.52;;;21.90;99.90;;;21.38;63.23;101102.31;5015681;28;20028;-77
2022/10/14 08:19:09;;;;;;;30.80;15.60;;;21.90;99.90;;;21.20;63.63;101092.22;5038567;28;20406;-78
2022/10/14 08:21:38;;;;;;;25.55;15.13;;;21.90;99.90;;;21.04;63.87;101098.03;5006137;28;20112;-77
2022/10/14 08:24:04;;;;;;;25.20;15.57;;;21.80;99.90;;;20.59;64.45;101100.09;5036884;28;20036;-77
2022/10/14 08:26:35;;;;;;;28.58;16.63;;;21.30;99.90;;;19.98;66.00;101097.91;5043332;28;20051;-78
2022/10/14 08:29:12;;;;;;;34.17;18.05;;;20.70;99.90;;;19.36;67.24;101089.34;5024764;28;20029;-77
2022/10/14 08:31:38;;;;;;;27.42;17.10;;;20.50;99.90;;;19.67;67.15;101090.47;5042028;28;20033;-77
2022/10/14 08:34:04;;;;;;;35.03;17.17;;;20.50;99.90;;;19.99;66.59;101086.22;5039805;28;20032;-77
2022/10/14 08:36:30;;;;;;;26.30;16.73;;;20.90;99.90;;;20.60;64.94;101083.88;5039426;28;20033;-78
2022/10/14 08:38:58;;;;;;;33.35;16.25;;;21.40;99.90;;;21.18;63.73;101086.13;5025739;28;20030;-78
2022/10/14 08:41:48;;;;;;;27.48;15.23;;;21.90;99.90;;;21.61;62.10;101093.16;5024333;28;20025;-77
2022/10/14 08:44:26;;;;;;;26.65;15.20;;;22.30;99.90;;;21.84;61.77;101087.63;5030210;28;20063;-78
2022/10/14 08:47:01;;;;;;;26.42;15.48;;;22.60;99.90;;;22.14;60.80;101105.50;5038714;28;20378;-77
2022/10/14 08:49:41;;;;;;;22.08;13.55;;;22.90;99.90;;;22.40;60.06;101099.66;5026237;28;20055;-77
2022/10/14 08:52:22;;;;;;;29.25;15.52;;;23.00;99.90;;;22.39;60.14;101092.56;5024997;28;20138;-78
2022/10/14 08:54:57;;;;;;;25.80;14.55;;;22.90;99.90;;;22.15;60.27;101093.75;5008458;28;20493;-77
2022/10/14 08:57:31;;;;;;;21.30;13.60;;;22.80;99.90;;;22.20;60.15;101091.53;5040467;28;20037;-77
2022/10/14 08:59:57;;;;;;;22.42;13.57;;;22.70;99.90;;;21.89;60.53;101093.41;5039876;28;20387;-77
2022/10/14 09:02:46;;;;;;;26.92;13.88;;;22.30;99.90;;;21.07;61.31;101095.09;5041340;28;20025;-78
2022/10/14 09:05:20;;;;;;;28.83;14.63;;;21.60;99.90;;;20.22;63.31;101087.03;5024664;28;20025;-77
2022/10/14 09:07:52;;;;;;;25.45;14.90;;;20.90;99.90;;;19.53;65.42;101087.19;5029582;28;20029;-78
2022/10/14 09:10:45;;;;;;;30.23;15.70;;;20.30;99.90;;;18.95;67.66;101093.38;5036700;28;20040;-77
2022/10/14 09:14:00;;;;;;;30.35;15.73;;;19.80;99.90;;;18.54;68.98;101086.66;5023301;28;20095;-77
2022/10/14 09:16:37;;;;;;;27.55;15.93;;;19.40;99.90;;;18.34;70.29;101084.63;4973636;28;20052;-77
2022/10/14 09:19:51;;;;;;;33.63;16.35;;;19.10;99.90;;;18.13;70.89;101087.88;5008823;28;20038;-77
2022/10/14 09:22:20;;;;;;;25.90;15.70;;;18.90;99.90;;;18.14;72.17;101083.41;5024519;28;20075;-78
2022/10/14 09:24:47;;;;;;;29.20;16.13;;;18.90;99.90;;;18.20;72.03;101081.13;5045514;28;20041;-77
2022/10/14 09:27:21;;;;;;;31.17;16.17;;;19.00;99.90;;;18.22;71.57;101071.22;5047143;28;20027;-78
2022/10/14 09:30:09;;;;;;;24.02;15.85;;;19.00;99.90;;;18.28;71.73;101077.91;5043504;28;20037;-78
2022/10/14 09:32:40;;;;;;;25.55;15.70;;;19.00;99.90;;;18.35;71.59;101075.66;5042899;28;20025;-77
2022/10/14 09:35:31;;;;;;;27.50;15.38;;;19.00;99.90;;;18.40;71.75;101071.69;5044142;28;20037;-78
2022/10/14 09:37:57;;;;;;;25.52;14.88;;;19.10;99.90;;;18.52;71.38;101075.25;5044743;28;20033;-78
2022/10/14 09:40:47;;;;;;;26.52;15.07;;;19.20;99.90;;;18.58;71.29;101072.13;5029015;28;20112;-78
2022/10/14 09:43:22;;;;;;;24.77;14.27;;;19.30;99.90;;;18.59;71.43;101067.63;5040741;28;20128;-78
2022/10/14 09:46:09;;;;;;;23.63;14.57;;;19.30;99.90;;;18.64;71.41;101065.50;5026922;28;20045;-78
2022/10/14 09:48:50;;;;;;;25.70;13.93;;;19.30;99.90;;;18.51;71.30;101054.00;5012457;28;20041;-78
2022/10/14 09:51:41;;;;;;;26.92;14.02;;;19.20;99.90;;;18.27;71.92;101054.88;5044477;28;20089;-77
2022/10/14 09:54:29;;;;;;;20.08;13.38;;;19.10;99.90;;;18.22;73.12;101065.88;5046893;28;20406;-77
2022/10/14 09:57:07;;;;;;;28.27;14.35;;;19.00;99.90;;;18.06;73.50;101057.31;5035150;28;20055;-77
2022/10/14 09:59:48;;;;;;;28.75;12.93;;;18.90;99.90;;;18.02;73.74;101058.50;5043520;28;20073;-77
2022/10/14 10:02:47;;;;;;;26.73;14.15;;;18.90;99.90;;;17.90;73.20;101056.72;5028822;28;20033;-77
2022/10/14 10:05:26;;;;;;;29.23;13.70;;;18.80;99.90;;;17.96;74.09;101069.59;5044053;28;20579;-77
2022/10/14 10:08:16;;;;;;;30.80;13.63;;;18.80;99.90;;;17.90;73.98;101057.56;5033850;28;20025;-77
2022/10/14 10:11:09;;;;;;;24.40;13.70;;;18.80;99.90;;;17.96;74.23;101051.78;5022380;28;20041;-78
2022/10/14 10:13:47;;;;;;;25.02;14.85;;;18.70;99.90;;;17.78;73.31;101056.63;5027473;28;20037;-78
2022/10/14 10:16:30;;;;;;;24.45;15.98;;;18.70;99.90;;;17.88;73.76;101056.81;5024003;28;20044;-77
2022/10/14 10:19:15;;;;;;;24.35;15.52;;;18.70;99.90;;;17.92;73.44;101047.66;5042599;28;20039;-77